createdAt,value
2019-02-08T00:00:45.373Z,1.54
2019-02-08T00:03:14.973Z,1.49
2019-02-08T00:05:44.720Z,1.56
2019-02-08T00:08:14.339Z,1.48
2019-02-08T00:10:43.958Z,1.54
2019-02-08T00:13:13.870Z,1.54
2019-02-08T00:15:43.637Z,1.45
2019-02-08T00:18:13.435Z,1.50
2019-02-08T00:20:42.956Z,1.51
2019-02-08T00:23:12.867Z,1.47
2019-02-08T00:25:42.399Z,1.35
2019-02-08T00:28:11.986Z,1.42
2019-02-08T00:30:41.710Z,1.40
2019-02-08T00:33:11.269Z,1.41
2019-02-08T00:35:41.059Z,1.50
2019-02-08T00:38:10.710Z,1.59
2019-02-08T00:40:40.173Z,1.57
2019-02-08T00:43:11.530Z,1.45
2019-02-08T00:45:41.010Z,1.53
2019-02-08T00:48:10.688Z,1.40
2019-02-08T00:50:39.980Z,1.33
2019-02-08T00:53:09.655Z,1.28
2019-02-08T00:55:39.498Z,1.27
2019-02-08T00:58:09.244Z,1.21
2019-02-08T01:00:39.120Z,1.20
2019-02-08T01:03:08.818Z,1.40
2019-02-08T01:05:38.708Z,1.29
2019-02-08T01:08:08.512Z,1.34
2019-02-08T01:10:38.121Z,1.33
2019-02-08T01:13:08.197Z,1.37
2019-02-08T01:15:38.019Z,1.39
2019-02-08T01:18:07.581Z,1.23
2019-02-08T01:20:37.338Z,1.18
2019-02-08T01:23:06.975Z,1.10
2019-02-08T01:25:36.540Z,1.23
2019-02-08T01:28:06.328Z,1.22
2019-02-08T01:30:36.208Z,1.17
2019-02-08T01:33:05.824Z,1.20
2019-02-08T01:35:35.536Z,1.16
2019-02-08T01:38:05.300Z,1.23
2019-02-08T01:40:36.812Z,1.17
2019-02-08T01:43:06.976Z,1.24
2019-02-08T01:45:36.987Z,1.19
2019-02-08T01:48:07.072Z,1.21
2019-02-08T01:50:36.906Z,1.26
2019-02-08T01:53:06.692Z,1.24
2019-02-08T01:55:36.398Z,1.19
2019-02-08T01:58:06.502Z,1.21
2019-02-08T02:00:38.743Z,1.22
2019-02-08T02:03:09.627Z,1.25
2019-02-08T02:05:39.291Z,1.15
2019-02-08T02:08:08.932Z,1.15
2019-02-08T02:10:41.076Z,1.19
2019-02-08T02:13:11.035Z,1.21
2019-02-08T02:15:41.032Z,1.24
2019-02-08T02:18:11.113Z,1.29
2019-02-08T02:20:41.593Z,1.18
2019-02-08T02:23:13.127Z,1.07
2019-02-08T02:25:42.857Z,1.12
2019-02-08T02:28:12.721Z,1.04
2019-02-08T02:30:42.431Z,1.07
2019-02-08T02:33:12.801Z,1.14
2019-02-08T02:35:42.413Z,1.12
2019-02-08T02:38:12.218Z,1.10
2019-02-08T02:40:41.704Z,1.18
2019-02-08T02:43:11.275Z,1.15
2019-02-08T02:45:41.459Z,1.07
2019-02-08T02:48:12.831Z,1.08
2019-02-08T02:50:42.474Z,1.07
2019-02-08T02:53:12.182Z,1.11
2019-02-08T02:55:41.823Z,0.99
2019-02-08T02:58:11.641Z,1.09
2019-02-08T03:00:43.282Z,1.02
2019-02-08T03:03:14.003Z,0.97
2019-02-08T03:05:43.689Z,1.04
2019-02-08T03:08:14.277Z,1.02
2019-02-08T03:10:44.073Z,1.03
2019-02-08T03:13:13.895Z,1.08
2019-02-08T03:15:43.533Z,1.04
2019-02-08T03:18:13.245Z,1.10
2019-02-08T03:20:42.860Z,0.94
2019-02-08T03:23:12.617Z,0.89
2019-02-08T03:25:42.264Z,0.95
2019-02-08T03:28:11.735Z,1.03
2019-02-08T03:30:47.211Z,0.97
2019-02-08T03:33:16.854Z,0.90
2019-02-08T03:35:46.375Z,0.95
2019-02-08T03:38:16.190Z,0.82
2019-02-08T03:40:45.938Z,0.83
2019-02-08T03:43:15.618Z,0.68
2019-02-08T03:45:45.657Z,0.65
2019-02-08T03:48:15.343Z,0.69
2019-02-08T03:50:44.879Z,0.61
2019-02-08T03:53:14.515Z,0.69
2019-02-08T03:55:44.225Z,0.63
2019-02-08T03:58:13.912Z,0.57
2019-02-08T04:00:47.650Z,0.47
2019-02-08T04:03:17.271Z,0.54
2019-02-08T04:05:47.067Z,0.60
2019-02-08T04:08:16.771Z,0.67
2019-02-08T04:10:46.262Z,0.80
2019-02-08T04:13:15.887Z,0.79
2019-02-08T04:15:45.599Z,0.74
2019-02-08T04:18:15.282Z,0.75
2019-02-08T04:20:44.973Z,0.74
2019-02-08T04:23:14.627Z,0.81
2019-02-08T04:25:44.288Z,0.92
2019-02-08T04:28:13.998Z,0.81
2019-02-08T04:30:43.730Z,0.64
2019-02-08T04:33:13.307Z,0.68
2019-02-08T04:35:42.909Z,0.72
2019-02-08T04:38:12.484Z,0.59
2019-02-08T04:40:42.209Z,0.51
2019-02-08T04:43:11.852Z,0.44
2019-02-08T04:45:41.690Z,0.58
2019-02-08T04:48:11.264Z,0.67
2019-02-08T04:50:41.003Z,0.66
2019-02-08T04:53:10.639Z,0.63
2019-02-08T04:55:40.306Z,0.61
2019-02-08T04:58:09.933Z,0.63
2019-02-08T05:00:39.610Z,0.55
2019-02-08T05:03:09.433Z,0.58
2019-02-08T05:05:39.132Z,0.64
2019-02-08T05:08:09.107Z,0.48
2019-02-08T05:10:38.615Z,0.44
2019-02-08T05:13:08.274Z,0.52
2019-02-08T05:15:38.164Z,0.45
2019-02-08T05:18:07.847Z,0.47
2019-02-08T05:20:37.583Z,0.51
2019-02-08T05:23:07.356Z,0.46
2019-02-08T05:25:36.935Z,0.42
2019-02-08T05:28:06.467Z,0.36
2019-02-08T05:30:36.524Z,0.51
2019-02-08T05:33:06.489Z,0.52
2019-02-08T05:35:36.034Z,0.70
2019-02-08T05:38:05.788Z,0.71
2019-02-08T05:40:35.584Z,0.86
2019-02-08T05:43:05.530Z,0.85
2019-02-08T05:45:35.124Z,0.56
2019-02-08T05:48:05.350Z,0.57
2019-02-08T05:50:35.154Z,0.52
2019-02-08T05:53:04.804Z,0.61
2019-02-08T05:55:34.546Z,0.59
2019-02-08T05:58:04.290Z,0.63
2019-02-08T06:00:40.396Z,0.60
2019-02-08T06:03:10.842Z,0.63
2019-02-08T06:05:40.457Z,0.63
2019-02-08T06:08:10.227Z,0.60
2019-02-08T06:10:39.576Z,0.68
2019-02-08T06:13:09.491Z,0.69
2019-02-08T06:15:39.123Z,0.68
2019-02-08T06:18:09.672Z,0.59
2019-02-08T06:20:40.083Z,0.53
2019-02-08T06:23:09.711Z,0.59
2019-02-08T06:25:39.508Z,0.65
2019-02-08T06:28:09.411Z,0.67
2019-02-08T06:30:39.185Z,0.64
2019-02-08T06:33:09.038Z,0.67
2019-02-08T06:35:38.862Z,0.73
2019-02-08T06:38:08.586Z,0.72
2019-02-08T06:40:40.698Z,0.83
2019-02-08T06:43:10.451Z,0.86
2019-02-08T06:45:41.218Z,0.88
2019-02-08T06:48:12.355Z,0.89
2019-02-08T06:50:42.273Z,0.84
2019-02-08T06:53:12.013Z,0.90
2019-02-08T06:55:41.670Z,0.92
2019-02-08T06:58:19.259Z,0.79
2019-02-08T07:00:56.832Z,0.82
2019-02-08T07:03:40.547Z,0.87
2019-02-08T07:06:47.539Z,0.92
2019-02-08T07:09:53.946Z,0.84
2019-02-08T07:12:36.911Z,0.96
2019-02-08T07:15:13.559Z,0.96
2019-02-08T07:19:50.918Z,0.90
2019-02-08T07:22:25.786Z,0.83
2019-02-08T07:24:59.450Z,0.82
2019-02-08T07:27:36.214Z,0.87
2019-02-08T07:30:24.775Z,1.01
2019-02-08T07:33:01.580Z,1.03
2019-02-08T07:36:35.276Z,1.03
2019-02-08T07:39:19.447Z,1.10
2019-02-08T07:41:57.585Z,0.94
2019-02-08T07:44:48.559Z,0.98
2019-02-08T07:47:37.419Z,1.01
2019-02-08T07:50:39.015Z,1.09
2019-02-08T07:53:14.154Z,1.06
2019-02-08T07:55:48.691Z,1.02
2019-02-08T07:58:25.310Z,1.12
2019-02-08T08:01:03.192Z,1.14
2019-02-08T08:04:37.659Z,1.30
2019-02-08T08:09:19.242Z,1.18
2019-02-08T08:12:02.343Z,1.19
2019-02-08T08:14:57.043Z,1.22
2019-02-08T08:18:31.019Z,1.22
2019-02-08T08:21:20.149Z,1.24
2019-02-08T08:23:55.677Z,1.24
2019-02-08T08:26:30.539Z,1.29
2019-02-08T08:29:09.639Z,1.24
2019-02-08T08:31:51.095Z,1.35
2019-02-08T08:34:39.954Z,1.28
2019-02-08T08:37:54.344Z,1.30
2019-02-08T08:42:56.652Z,1.32
2019-02-08T08:45:41.116Z,1.41
2019-02-08T08:48:23.822Z,1.56
2019-02-08T08:51:11.338Z,1.55
2019-02-08T08:55:57.332Z,1.75
2019-02-08T09:00:40.481Z,1.68
2019-02-08T09:06:21.904Z,1.60
2019-02-08T09:09:43.652Z,1.55
2019-02-08T09:13:26.435Z,1.50
2019-02-08T09:16:46.018Z,1.77
2019-02-08T09:21:32.044Z,1.79
2019-02-08T09:24:17.431Z,1.75
2019-02-08T09:27:03.724Z,1.79
2019-02-08T09:31:47.585Z,1.91
2019-02-08T09:34:35.936Z,1.89
2019-02-08T09:39:25.276Z,1.92
2019-02-08T09:42:16.371Z,2.07
2019-02-08T09:45:05.044Z,2.06
2019-02-08T09:47:50.895Z,1.93
2019-02-08T09:53:41.690Z,2.01
2019-02-08T09:58:57.809Z,2.03
2019-02-08T10:01:38.903Z,2.03
2019-02-08T10:04:33.483Z,1.96
2019-02-08T10:07:21.920Z,2.00
2019-02-08T10:10:12.369Z,2.09
2019-02-08T10:12:55.374Z,2.22
2019-02-08T10:16:44.316Z,2.15
2019-02-08T10:20:13.270Z,2.16
2019-02-08T10:25:01.091Z,2.22
2019-02-08T10:27:41.155Z,2.21
2019-02-08T10:32:29.104Z,2.23
2019-02-08T10:35:41.648Z,2.06
2019-02-08T10:41:30.265Z,1.98
2019-02-08T10:45:07.748Z,2.12
2019-02-08T10:47:48.304Z,2.01
2019-02-08T10:50:28.753Z,1.92
2019-02-08T10:53:09.295Z,2.06
2019-02-08T10:55:59.898Z,1.97
2019-02-08T11:00:50.191Z,1.99
2019-02-08T11:03:33.196Z,2.04
2019-02-08T11:06:13.755Z,1.98
2019-02-08T11:11:09.943Z,2.12
2019-02-08T11:13:55.666Z,2.12
2019-02-08T11:16:37.697Z,2.18
2019-02-08T11:19:18.918Z,2.11
2019-02-08T11:21:49.920Z,2.08
2019-02-08T11:24:22.610Z,2.03
2019-02-08T11:26:52.409Z,2.04
2019-02-08T11:29:22.206Z,2.07
2019-02-08T11:31:52.102Z,2.19
2019-02-08T11:34:21.957Z,2.11
2019-02-08T11:36:51.445Z,2.19
2019-02-08T11:39:21.153Z,2.16
2019-02-08T11:41:51.328Z,2.16
2019-02-08T11:44:22.029Z,2.27
2019-02-08T11:46:51.571Z,2.16
2019-02-08T11:49:21.062Z,2.13
2019-02-08T11:51:50.608Z,2.04
2019-02-08T11:54:19.996Z,2.11
2019-02-08T11:56:50.481Z,2.19
2019-02-08T11:59:20.418Z,2.13
2019-02-08T12:01:50.802Z,2.11
2019-02-08T12:04:20.674Z,2.13
2019-02-08T12:06:50.633Z,2.16
2019-02-08T12:09:20.287Z,2.17
2019-02-08T12:11:50.006Z,2.28
2019-02-08T12:14:19.572Z,2.25
2019-02-08T12:16:49.192Z,2.24
2019-02-08T12:19:18.854Z,2.14
2019-02-08T12:21:48.634Z,2.28
2019-02-08T12:24:18.329Z,2.16
2019-02-08T12:26:47.831Z,2.26
2019-02-08T12:29:17.655Z,2.32
2019-02-08T12:31:47.370Z,2.35
2019-02-08T12:34:17.058Z,2.35
2019-02-08T12:36:46.813Z,2.24
2019-02-08T12:39:16.371Z,2.20
2019-02-08T12:41:45.865Z,2.21
2019-02-08T12:44:15.725Z,2.06
2019-02-08T12:46:45.408Z,2.18
2019-02-08T12:49:15.123Z,2.19
2019-02-08T12:51:44.912Z,2.13
2019-02-08T12:54:14.653Z,2.12
2019-02-08T12:56:45.679Z,2.13
2019-02-08T12:59:14.182Z,2.22
2019-02-08T13:01:43.674Z,2.18
2019-02-08T13:04:13.299Z,2.08
2019-02-08T13:06:43.289Z,2.13
2019-02-08T13:09:13.315Z,2.18
2019-02-08T13:11:43.025Z,2.12
2019-02-08T13:14:12.668Z,2.05
2019-02-08T13:16:42.344Z,2.00
2019-02-08T13:19:11.962Z,2.05
2019-02-08T13:21:41.623Z,1.99
2019-02-08T13:24:11.220Z,2.05
2019-02-08T13:26:40.886Z,2.03
2019-02-08T13:29:10.427Z,2.07
2019-02-08T13:31:39.979Z,2.02
2019-02-08T13:34:09.628Z,1.98
2019-02-08T13:36:39.314Z,2.10
2019-02-08T13:39:09.787Z,2.02
2019-02-08T13:41:39.373Z,2.01
2019-02-08T13:44:08.959Z,1.97
2019-02-08T13:46:38.655Z,2.03
2019-02-08T13:49:08.363Z,1.97
2019-02-08T13:51:37.970Z,1.97
2019-02-08T13:54:07.802Z,1.94
2019-02-08T13:56:37.405Z,1.94
2019-02-08T13:59:07.304Z,1.97
2019-02-08T14:01:36.850Z,2.00
2019-02-08T14:04:06.558Z,1.82
2019-02-08T14:06:36.318Z,1.95
2019-02-08T14:09:08.689Z,1.88
2019-02-08T14:11:38.622Z,1.84
2019-02-08T14:14:08.376Z,1.86
2019-02-08T14:16:38.103Z,1.84
2019-02-08T14:19:08.164Z,1.94
2019-02-08T14:21:37.793Z,1.94
2019-02-08T14:24:07.421Z,1.95
2019-02-08T14:26:37.031Z,1.93
2019-02-08T14:29:07.625Z,1.85
2019-02-08T14:31:37.248Z,1.93
2019-02-08T14:34:06.995Z,1.84
2019-02-08T14:36:36.577Z,1.83
2019-02-08T14:39:09.253Z,1.75
2019-02-08T14:41:38.810Z,1.81
2019-02-08T14:44:08.500Z,1.80
2019-02-08T14:46:38.007Z,1.84
2019-02-08T14:49:07.734Z,1.86
2019-02-08T14:51:37.340Z,1.75
2019-02-08T14:54:07.132Z,1.65
2019-02-08T14:56:36.707Z,1.65
2019-02-08T14:59:06.315Z,1.74
2019-02-08T15:01:35.947Z,1.68
2019-02-08T15:04:07.462Z,1.73
2019-02-08T15:06:35.386Z,1.64
2019-02-08T15:09:08.840Z,1.67
2019-02-08T15:11:38.583Z,1.60
2019-02-08T15:14:08.315Z,1.63
2019-02-08T15:16:37.887Z,1.69
2019-02-08T15:19:07.593Z,1.70
2019-02-08T15:21:37.214Z,1.66
2019-02-08T15:24:07.224Z,1.53
2019-02-08T15:26:36.777Z,1.48
2019-02-08T15:29:06.389Z,1.54
2019-02-08T15:31:36.819Z,1.52
2019-02-08T15:34:06.324Z,1.64
2019-02-08T15:36:35.955Z,1.63
2019-02-08T15:39:09.163Z,1.67
2019-02-08T15:41:38.819Z,1.67
2019-02-08T15:44:08.410Z,1.61
2019-02-08T16:04:01.359Z,1.45
2019-02-08T16:06:30.959Z,1.40
2019-02-08T16:09:00.424Z,1.39
2019-02-08T16:11:29.806Z,1.38
2019-02-08T16:13:59.394Z,1.43
2019-02-08T16:16:29.085Z,1.42
2019-02-08T16:18:58.730Z,1.43
2019-02-08T16:38:52.067Z,1.27
2019-02-08T16:41:21.888Z,1.30
2019-02-08T16:43:51.692Z,1.36
2019-02-08T16:46:21.267Z,1.32
2019-02-08T16:48:50.864Z,1.35
2019-02-08T16:51:20.388Z,1.36
2019-02-08T16:53:53.516Z,1.41
2019-02-08T16:56:19.738Z,1.40
2019-02-08T16:58:49.300Z,1.48
2019-02-08T17:01:18.846Z,1.40
2019-02-08T17:03:48.619Z,1.35
2019-02-08T17:06:19.248Z,1.33
2019-02-08T17:08:48.826Z,1.37
2019-02-08T17:11:18.324Z,1.36
2019-02-08T17:13:47.932Z,1.36
2019-02-08T17:50:58.655Z,1.23
2019-02-08T17:53:28.239Z,1.28
2019-02-08T18:13:20.431Z,1.27
2019-02-08T18:15:50.048Z,1.14
2019-02-08T18:35:42.988Z,1.28
2019-02-08T18:38:13.066Z,1.35
2019-02-08T18:40:42.759Z,1.37
2019-02-08T19:00:40.014Z,0.89
2019-02-08T19:03:04.843Z,0.96
2019-02-08T19:05:34.411Z,1.19
2019-02-08T19:08:04.148Z,1.23
2019-02-08T19:10:33.808Z,0.82
2019-02-08T19:13:03.532Z,0.70
2019-02-08T19:15:33.302Z,0.86
2019-02-08T19:18:02.972Z,0.84
2019-02-08T19:37:55.392Z,1.24
2019-02-08T19:40:27.578Z,1.30
2019-02-08T19:42:57.443Z,1.33
2019-02-08T19:45:27.033Z,1.33
2019-02-08T19:47:56.655Z,1.35
2019-02-08T19:50:29.073Z,1.40
2019-02-08T20:10:23.371Z,1.25
2019-02-08T20:12:54.292Z,1.19
2019-02-08T20:15:22.579Z,1.14
2019-02-08T20:35:15.756Z,1.23
2019-02-08T20:37:45.294Z,1.41
2019-02-08T20:40:17.526Z,1.14
2019-02-08T20:42:47.243Z,1.08
2019-02-08T20:45:20.704Z,1.15
2019-02-08T20:47:51.109Z,1.17
2019-02-08T21:07:43.188Z,1.12
2019-02-08T21:10:12.953Z,0.99
2019-02-08T21:12:42.667Z,0.93
2019-02-08T21:15:12.892Z,1.02
2019-02-08T21:17:42.549Z,1.07
2019-02-08T21:20:12.216Z,1.09
2019-02-08T21:22:42.053Z,1.07
2019-02-08T21:25:12.932Z,1.16
2019-02-08T21:27:42.770Z,1.12
2019-02-08T21:30:13.620Z,1.14
2019-02-08T21:32:43.579Z,1.17
2019-02-08T21:35:13.308Z,1.16
2019-02-08T21:37:42.824Z,1.20
2019-02-08T21:40:13.632Z,1.25
2019-02-08T21:42:43.412Z,1.21
2019-02-08T21:45:16.551Z,1.18
2019-02-08T21:47:46.442Z,1.29
2019-02-08T21:50:17.141Z,1.29
2019-02-08T21:52:46.782Z,1.25
2019-02-08T21:55:17.232Z,1.18
2019-02-08T21:57:46.780Z,1.31
2019-02-08T22:00:18.330Z,1.34
2019-02-08T22:02:48.032Z,1.38
2019-02-08T22:05:18.344Z,1.31
2019-02-08T22:07:48.000Z,1.24
2019-02-08T22:10:17.657Z,1.23
2019-02-08T22:12:48.374Z,1.19
2019-02-08T22:15:20.222Z,1.27
2019-02-08T22:17:49.889Z,1.22
2019-02-08T22:20:19.541Z,1.14
2019-02-08T22:22:49.345Z,1.10
2019-02-08T22:25:19.745Z,1.17
2019-02-08T22:27:50.407Z,1.17
2019-02-08T22:30:21.664Z,1.14
2019-02-08T22:32:52.413Z,1.03
2019-02-08T22:52:44.441Z,0.92
2019-02-08T22:55:16.107Z,0.91
2019-02-08T22:57:45.711Z,1.01
2019-02-08T23:00:26.583Z,1.00
2019-02-08T23:02:56.318Z,1.07
2019-02-08T23:05:26.065Z,1.08
2019-02-08T23:25:18.247Z,1.09
2019-02-08T23:27:48.116Z,1.13
2019-02-08T23:47:40.139Z,0.86
2019-02-08T23:50:10.108Z,0.67
2019-02-08T23:52:39.712Z,0.61
2019-02-08T23:55:09.442Z,0.71
2019-02-08T23:57:39.031Z,0.79
